Time;durP1;ratioP1;P1;durP2;ratioP2;P2;SDS_P1;SDS_P2;PMS_P1;PMS_P2;Temp;Humidity;BMP_temperature;BMP_pressure;BME280_temperature;BME280_humidity;BME280_pressure;Samples;Min_cycle;Max_cycle;Signal;HPM_P1;HPM_P2
2023/01/14 00:01:47;;;;;;;19.60;3.42;;;7.00;99.90;;;;;;5066981;28;20849;-81
2023/01/14 00:04:12;;;;;;;15.73;3.50;;;7.00;99.90;;;;;;5055071;28;20064;-82
2023/01/14 00:06:38;;;;;;;10.15;2.38;;;6.00;99.90;;;;;;5067885;28;20036;-81
2023/01/14 00:09:11;;;;;;;17.63;3.05;;;7.10;99.90;;;;;;5051950;28;20650;-81
2023/01/14 00:11:46;;;;;;;16.35;3.90;;;7.10;99.90;;;;;;5051460;28;20044;-82
2023/01/14 00:14:15;;;;;;;22.48;4.63;;;6.90;99.90;;;;;;5027528;28;20049;-81
2023/01/14 00:16:42;;;;;;;22.38;3.58;;;8.80;99.90;;;;;;5066737;28;20078;-83
2023/01/14 00:19:09;;;;;;;25.55;5.25;;;8.50;99.90;;;;;;5052503;28;20125;-83
2023/01/14 00:21:36;;;;;;;30.17;4.35;;;5.80;99.90;;;;;;5050698;28;20047;-83
2023/01/14 00:24:02;;;;;;;25.70;3.92;;;7.10;99.90;;;;;;5051906;28;20088;-83
2023/01/14 00:26:30;;;;;;;15.48;3.30;;;7.00;99.90;;;;;;5051748;28;20037;-83
2023/01/14 00:28:56;;;;;;;20.48;3.60;;;7.30;99.90;;;;;;5034710;28;20049;-84
2023/01/14 00:31:25;;;;;;;17.48;3.30;;;7.00;99.90;;;;;;5050988;28;20401;-83
2023/01/14 00:33:57;;;;;;;15.48;3.33;;;7.00;99.90;;;;;;5069669;28;20047;-83
2023/01/14 00:36:27;;;;;;;20.50;3.13;;;7.00;99.90;;;;;;5075276;28;20047;-84
2023/01/14 00:38:56;;;;;;;17.98;2.80;;;7.00;99.90;;;;;;5052759;28;20072;-84
2023/01/14 00:41:26;;;;;;;27.83;4.28;;;7.10;99.90;;;;;;5048645;28;20044;-83
2023/01/14 00:44:03;;;;;;;21.67;3.67;;;7.10;99.90;;;;;;5051301;28;20134;-84
2023/01/14 00:46:34;;;;;;;16.33;2.78;;;8.60;99.90;;;;;;5050007;28;20540;-84
2023/01/14 00:49:02;;;;;;;15.25;2.72;;;8.80;99.90;;;;;;5034607;28;20664;-83
2023/01/14 00:51:31;;;;;;;24.20;3.17;;;7.10;99.90;;;;;;5049972;28;20053;-83
2023/01/14 00:53:59;;;;;;;20.45;2.67;;;8.90;99.90;;;;;;5051257;28;20048;-83
2023/01/14 00:56:25;;;;;;;22.17;3.08;;;7.10;99.90;;;;;;5033085;28;20048;-84
2023/01/14 00:58:52;;;;;;;17.17;3.72;;;7.20;99.90;;;;;;5050075;28;20040;-83
2023/01/14 01:01:19;;;;;;;14.05;2.58;;;7.20;99.90;;;;;;5031725;28;20044;-82
2023/01/14 01:03:55;;;;;;;20.88;3.42;;;7.10;99.90;;;;;;5038945;28;20040;-84
2023/01/14 01:06:23;;;;;;;16.05;2.10;;;7.10;99.90;;;;;;5048190;28;20048;-83
2023/01/14 01:08:58;;;;;;;16.60;2.78;;;7.10;99.90;;;;;;5050183;28;20116;-83
2023/01/14 01:11:26;;;;;;;20.00;3.10;;;7.70;99.90;;;;;;5029524;28;20078;-82
2023/01/14 01:13:53;;;;;;;21.42;3.15;;;7.20;99.90;;;;;;5033899;28;20040;-83
2023/01/14 01:16:23;;;;;;;14.52;2.90;;;7.10;99.90;;;;;;5050287;28;20048;-83
2023/01/14 01:18:51;;;;;;;21.00;3.03;;;7.10;99.90;;;;;;5049896;28;20193;-82
2023/01/14 01:21:19;;;;;;;15.48;2.72;;;7.00;99.90;;;;;;5033509;28;20058;-83
2023/01/14 01:23:48;;;;;;;20.67;3.58;;;7.10;99.90;;;;;;5050331;28;20070;-84
2023/01/14 01:26:17;;;;;;;19.77;2.70;;;7.00;99.90;;;;;;5068222;28;20098;-83
2023/01/14 01:28:46;;;;;;;18.05;2.78;;;7.00;99.90;;;;;;5030016;28;20051;-83
2023/01/14 01:31:13;;;;;;;20.90;3.28;;;6.90;99.90;;;;;;5040880;28;20044;-84
2023/01/14 01:33:45;;;;;;;20.92;3.33;;;6.90;99.90;;;;;;5049455;28;20041;-84
2023/01/14 01:36:13;;;;;;;29.38;4.35;;;6.80;99.90;;;;;;5050892;28;20058;-84
2023/01/14 01:38:40;;;;;;;19.08;3.30;;;6.80;99.90;;;;;;5049273;28;20048;-83
2023/01/14 01:41:06;;;;;;;24.35;3.75;;;7.00;99.90;;;;;;5066326;28;20056;-84
2023/01/14 01:43:33;;;;;;;19.92;2.58;;;6.70;99.90;;;;;;5032154;28;20048;-82
2023/01/14 01:46:00;;;;;;;19.88;3.15;;;6.80;99.90;;;;;;5048713;28;20086;-84
2023/01/14 01:48:35;;;;;;;21.08;3.17;;;6.70;99.90;;;;;;5050382;28;20044;-84
2023/01/14 01:51:07;;;;;;;26.17;4.05;;;8.10;99.90;;;;;;5032388;28;20044;-84
2023/01/14 01:53:37;;;;;;;21.30;3.90;;;6.60;99.90;;;;;;5029505;28;20045;-83
2023/01/14 01:56:04;;;;;;;20.80;2.78;;;6.60;99.90;;;;;;5031827;28;20045;-85
2023/01/14 01:58:31;;;;;;;14.55;2.80;;;6.60;99.90;;;;;;5067486;28;20037;-83
2023/01/14 02:00:57;;;;;;;23.73;4.70;;;6.50;99.90;;;;;;5032361;28;20401;-83
2023/01/14 02:03:41;;;;;;;27.60;3.88;;;6.60;99.90;;;;;;5032550;28;20542;-84
2023/01/14 02:06:07;;;;;;;22.90;3.80;;;6.60;99.90;;;;;;5048483;28;20052;-84
2023/01/14 02:08:36;;;;;;;18.58;3.85;;;6.60;99.90;;;;;;5028258;28;20039;-83
2023/01/14 02:11:27;;;;;;;21.58;3.65;;;6.70;99.90;;;;;;5030893;28;20043;-84
2023/01/14 02:14:08;;;;;;;21.40;2.75;;;6.60;99.90;;;;;;5047541;28;20048;-82
2023/01/14 02:16:44;;;;;;;24.60;4.35;;;6.10;99.90;;;;;;5066435;28;20036;-84
2023/01/14 02:19:41;;;;;;;22.23;3.63;;;6.60;99.90;;;;;;5033521;28;20056;-84
2023/01/14 02:22:10;;;;;;;19.77;2.90;;;6.70;99.90;;;;;;5030552;28;20044;-83
2023/01/14 02:24:48;;;;;;;29.85;4.75;;;6.30;99.90;;;;;;5051648;28;20044;-84
2023/01/14 02:27:39;;;;;;;21.20;3.30;;;6.60;99.90;;;;;;5066629;28;20488;-84
2023/01/14 02:30:42;;;;;;;21.10;2.75;;;6.60;99.90;;;;;;5044883;28;20044;-83
2023/01/14 02:33:29;;;;;;;22.70;3.50;;;6.60;99.90;;;;;;5067034;28;20040;-83
2023/01/14 02:36:17;;;;;;;21.30;4.03;;;6.60;99.90;;;;;;5051772;28;20050;-83
2023/01/14 02:38:57;;;;;;;25.52;3.17;;;6.60;99.90;;;;;;5063817;28;20036;-83
2023/01/14 02:44:54;;;;;;;21.65;3.55;;;6.50;99.90;;;;;;5048744;28;20051;-83
2023/01/14 02:47:24;;;;;;;23.08;2.92;;;6.50;99.90;;;;;;5048647;28;20052;-82
2023/01/14 02:49:53;;;;;;;22.00;3.70;;;6.50;99.90;;;;;;5067249;28;20128;-82
2023/01/14 02:52:19;;;;;;;22.80;4.63;;;6.80;99.90;;;;;;5066573;28;20060;-84
2023/01/14 02:54:53;;;;;;;24.20;3.55;;;7.80;99.90;;;;;;5049278;28;20033;-83
2023/01/14 02:57:48;;;;;;;20.42;3.22;;;6.40;99.90;;;;;;5066575;28;20047;-83
2023/01/14 03:00:17;;;;;;;21.85;3.45;;;6.40;99.90;;;;;;5063363;28;20033;-83
2023/01/14 03:03:07;;;;;;;21.98;3.67;;;6.40;99.90;;;;;;5059393;28;20064;-83
2023/01/14 03:06:05;;;;;;;26.52;3.78;;;6.40;99.90;;;;;;5043632;28;20040;-83
2023/01/14 03:08:50;;;;;;;13.07;3.47;;;6.40;99.90;;;;;;5046956;28;20497;-83
2023/01/14 03:11:16;;;;;;;18.75;3.38;;;6.30;99.90;;;;;;5052462;28;20049;-83
2023/01/14 03:13:41;;;;;;;22.67;3.63;;;6.20;99.90;;;;;;5071753;28;20028;-82
2023/01/14 03:16:20;;;;;;;25.25;3.80;;;6.20;99.90;;;;;;5051264;28;20127;-82
2023/01/14 03:19:09;;;;;;;17.55;3.17;;;6.20;99.90;;;;;;5038394;28;20049;-83
2023/01/14 03:21:39;;;;;;;19.80;3.72;;;6.20;99.90;;;;;;5047456;28;20084;-83
2023/01/14 03:24:11;;;;;;;30.27;3.13;;;7.80;99.90;;;;;;5069545;28;20513;-84
2023/01/14 03:26:39;;;;;;;20.05;2.88;;;6.00;99.90;;;;;;5035230;28;20899;-83
2023/01/14 03:29:12;;;;;;;19.80;3.53;;;6.10;99.90;;;;;;5035410;28;20052;-83
2023/01/14 03:31:51;;;;;;;20.83;3.67;;;6.90;99.90;;;;;;5051528;28;20052;-83
2023/01/14 03:34:24;;;;;;;21.70;3.38;;;6.00;99.90;;;;;;5052085;28;20037;-82
2023/01/14 03:36:53;;;;;;;21.50;3.05;;;6.00;99.90;;;;;;5035282;28;20050;-82
2023/01/14 03:39:22;;;;;;;19.67;2.97;;;5.90;99.90;;;;;;5051213;28;20040;-82
2023/01/14 03:44:54;;;;;;;23.83;2.78;;;5.90;99.90;;;;;;5063693;28;20056;-84
2023/01/14 03:47:21;;;;;;;19.55;2.97;;;5.90;99.90;;;;;;5051011;28;20049;-83
2023/01/14 03:49:51;;;;;;;27.60;4.07;;;5.90;99.90;;;;;;5035197;28;20059;-83
2023/01/14 03:52:41;;;;;;;24.48;3.35;;;5.80;99.90;;;;;;5052187;28;20964;-83
2023/01/14 03:55:23;;;;;;;21.70;3.60;;;5.80;99.90;;;;;;5052507;28;20127;-84
2023/01/14 03:58:08;;;;;;;25.58;3.70;;;5.80;99.90;;;;;;5052684;28;20119;-81
2023/01/14 04:00:40;;;;;;;23.27;3.58;;;5.70;99.90;;;;;;5041448;28;20102;-82
2023/01/14 04:03:12;;;;;;;22.75;3.38;;;6.40;99.90;;;;;;5051036;28;20033;-84
2023/01/14 04:05:39;;;;;;;24.98;3.60;;;6.40;99.90;;;;;;5051012;28;20044;-83
2023/01/14 04:08:06;;;;;;;24.13;4.07;;;5.70;99.90;;;;;;5035130;28;20033;-83
2023/01/14 04:10:32;;;;;;;25.45;3.38;;;6.60;99.90;;;;;;5068930;28;20067;-83
2023/01/14 04:15:44;;;;;;;32.83;4.82;;;7.00;99.90;;;;;;5062272;28;20041;-83
2023/01/14 04:18:10;;;;;;;25.23;4.50;;;5.60;99.90;;;;;;5051773;28;20048;-82
2023/01/14 04:20:35;;;;;;;31.30;3.53;;;5.90;99.90;;;;;;5049465;28;20052;-82
2023/01/14 04:23:01;;;;;;;24.73;4.30;;;5.60;99.90;;;;;;5051269;28;20128;-83
2023/01/14 04:25:27;;;;;;;26.08;3.65;;;5.60;99.90;;;;;;5047545;28;20808;-82
2023/01/14 04:27:52;;;;;;;24.75;3.10;;;5.60;99.90;;;;;;5052855;28;20523;-81
2023/01/14 04:30:18;;;;;;;18.67;3.60;;;7.00;99.90;;;;;;5068641;28;20151;-83
2023/01/14 04:32:44;;;;;;;25.85;4.13;;;5.50;99.90;;;;;;5051249;28;20032;-83
2023/01/14 04:35:10;;;;;;;25.90;2.42;;;7.40;99.90;;;;;;5053641;28;20048;-83
2023/01/14 04:37:35;;;;;;;22.05;2.88;;;5.60;99.90;;;;;;5069454;28;20040;-83
2023/01/14 04:40:01;;;;;;;23.35;3.38;;;5.70;99.90;;;;;;5052038;28;20048;-83
2023/01/14 04:42:27;;;;;;;19.98;3.55;;;5.20;99.90;;;;;;5068662;28;20867;-83
2023/01/14 04:44:57;;;;;;;22.65;3.70;;;5.60;99.90;;;;;;5071809;28;20520;-83
2023/01/14 04:47:23;;;;;;;22.98;3.03;;;5.60;99.90;;;;;;5056593;28;20043;-82
2023/01/14 04:49:50;;;;;;;27.13;3.13;;;5.50;99.90;;;;;;5075187;28;20045;-84
2023/01/14 04:52:16;;;;;;;18.58;3.58;;;6.60;99.90;;;;;;5051383;28;20044;-82
2023/01/14 04:54:42;;;;;;;17.65;3.30;;;5.50;99.90;;;;;;5051077;28;20047;-82
2023/01/14 04:57:08;;;;;;;13.93;2.63;;;7.20;99.90;;;;;;5042641;28;20056;-83
2023/01/14 04:59:34;;;;;;;21.02;2.97;;;5.40;99.90;;;;;;5060515;28;20051;-83
2023/01/14 05:02:00;;;;;;;23.60;3.55;;;5.50;99.90;;;;;;5043062;28;20132;-83
2023/01/14 05:04:26;;;;;;;17.27;2.60;;;6.70;99.90;;;;;;5046525;28;20056;-82
2023/01/14 05:06:52;;;;;;;25.13;3.95;;;5.40;99.90;;;;;;5064652;28;20082;-82
2023/01/14 05:09:18;;;;;;;24.88;3.20;;;5.40;99.90;;;;;;5068051;28;20041;-83
2023/01/14 05:11:44;;;;;;;24.52;3.33;;;5.40;99.90;;;;;;5051188;28;20550;-83
2023/01/14 05:14:09;;;;;;;18.02;2.65;;;5.50;99.90;;;;;;5034606;28;20439;-83
2023/01/14 05:16:35;;;;;;;23.15;3.85;;;6.80;99.90;;;;;;5068223;28;20044;-83
2023/01/14 05:19:01;;;;;;;24.27;3.20;;;5.50;99.90;;;;;;5070003;28;20040;-79
2023/01/14 05:21:26;;;;;;;16.98;2.25;;;5.40;99.90;;;;;;5050354;28;20079;-81
2023/01/14 05:23:52;;;;;;;21.52;3.08;;;5.50;99.90;;;;;;5053616;28;20072;-82
2023/01/14 05:26:18;;;;;;;16.67;3.03;;;5.50;99.90;;;;;;5068570;28;20071;-83
2023/01/14 05:28:43;;;;;;;20.40;3.20;;;5.50;99.90;;;;;;5069169;28;20063;-83
2023/01/14 05:31:09;;;;;;;19.65;3.28;;;5.50;99.90;;;;;;5032022;28;20056;-82
2023/01/14 05:33:35;;;;;;;20.10;3.47;;;5.50;99.90;;;;;;5050096;28;20063;-83
2023/01/14 05:36:01;;;;;;;15.25;2.67;;;5.50;99.90;;;;;;5032758;28;20498;-83
2023/01/14 05:38:27;;;;;;;17.73;2.90;;;5.60;99.90;;;;;;5030941;28;20060;-82
2023/01/14 05:40:53;;;;;;;22.85;2.75;;;6.40;99.90;;;;;;5045831;28;20048;-83
2023/01/14 05:46:05;;;;;;;;;;;6.70;99.90;;;;;;5049385;28;20809;-84
2023/01/14 05:48:31;;;;;;;18.38;3.50;;;5.40;99.90;;;;;;5044124;28;20019;-83
2023/01/14 05:50:59;;;;;;;23.77;3.22;;;6.20;99.90;;;;;;5066108;28;20337;-82
2023/01/14 05:53:29;;;;;;;22.20;4.50;;;5.50;99.90;;;;;;5049030;28;20048;-84
2023/01/14 05:55:56;;;;;;;22.02;3.70;;;5.50;99.90;;;;;;5045120;28;20052;-83
2023/01/14 05:58:22;;;;;;;19.35;3.50;;;5.40;99.90;;;;;;5048794;28;20369;-84
2023/01/14 06:06:21;;;;;;;21.95;3.33;;;5.50;99.90;;;;;;5048165;28;20543;-82
2023/01/14 06:08:57;;;;;;;28.10;4.70;;;5.40;99.90;;;;;;5052843;28;20404;-83
2023/01/14 06:11:24;;;;;;;20.83;3.60;;;5.50;99.90;;;;;;5048844;28;20553;-83
2023/01/14 06:13:52;;;;;;;26.05;3.67;;;5.80;99.90;;;;;;5067242;28;20070;-83
2023/01/14 06:16:18;;;;;;;28.15;4.07;;;5.50;99.90;;;;;;5067171;28;20048;-83
2023/01/14 06:18:45;;;;;;;22.17;3.92;;;5.50;99.90;;;;;;5067242;28;20043;-83
2023/01/14 06:21:13;;;;;;;27.58;3.72;;;5.50;99.90;;;;;;5064843;28;20059;-84
2023/01/14 06:23:39;;;;;;;24.58;4.47;;;5.50;99.90;;;;;;5061917;28;20579;-81
2023/01/14 06:26:12;;;;;;;32.20;4.57;;;6.60;99.90;;;;;;5052383;28;20056;-83
2023/01/14 06:28:38;;;;;;;24.77;4.32;;;5.50;99.90;;;;;;5067757;28;20510;-83
2023/01/14 06:31:18;;;;;;;28.65;4.95;;;5.90;99.90;;;;;;5070904;28;20605;-82
2023/01/14 06:33:45;;;;;;;22.40;4.00;;;5.50;99.90;;;;;;5062552;28;20040;-81
2023/01/14 06:36:13;;;;;;;20.58;4.53;;;7.20;99.90;;;;;;5065178;28;20049;-82
2023/01/14 06:38:39;;;;;;;26.65;4.65;;;5.50;99.90;;;;;;5061366;28;20047;-82
2023/01/14 06:41:07;;;;;;;22.30;4.97;;;5.50;99.90;;;;;;5040112;28;20040;-81
2023/01/14 06:43:34;;;;;;;26.25;4.55;;;6.80;99.90;;;;;;5025007;28;20514;-82
2023/01/14 06:46:00;;;;;;;29.40;4.65;;;5.40;99.90;;;;;;5039462;28;20120;-82
2023/01/14 06:48:26;;;;;;;35.40;5.32;;;5.40;99.90;;;;;;5057675;28;20127;-82
2023/01/14 06:50:52;;;;;;;30.60;5.75;;;5.40;99.90;;;;;;5058031;28;20155;-83
2023/01/14 06:53:18;;;;;;;22.02;5.03;;;5.40;99.90;;;;;;5067805;28;20123;-83
2023/01/14 06:55:44;;;;;;;32.70;5.53;;;5.50;99.90;;;;;;5048371;28;20678;-83
2023/01/14 06:58:10;;;;;;;26.40;4.78;;;6.40;99.90;;;;;;5070756;28;20044;-82
2023/01/14 07:00:36;;;;;;;28.63;6.18;;;5.50;99.90;;;;;;5053054;28;20146;-82
2023/01/14 07:03:02;;;;;;;35.05;5.63;;;6.60;99.90;;;;;;5069115;28;20057;-83
2023/01/14 07:05:28;;;;;;;21.98;5.53;;;5.50;99.90;;;;;;5041128;28;20045;-84
2023/01/14 07:07:53;;;;;;;24.60;5.03;;;7.30;99.90;;;;;;5053720;28;20037;-83
2023/01/14 07:10:19;;;;;;;20.27;4.93;;;5.50;99.90;;;;;;5069696;28;20056;-84
2023/01/14 07:12:47;;;;;;;37.42;5.80;;;6.80;99.90;;;;;;5053436;28;20037;-83
2023/01/14 07:15:14;;;;;;;26.67;6.85;;;5.50;99.90;;;;;;5053030;28;20049;-83
2023/01/14 07:17:40;;;;;;;26.30;5.88;;;5.50;99.90;;;;;;5070229;28;20067;-83
2023/01/14 07:20:08;;;;;;;26.75;5.70;;;5.50;99.90;;;;;;5052620;28;20535;-80
2023/01/14 07:22:34;;;;;;;28.23;5.72;;;5.50;99.90;;;;;;5053649;28;20048;-82
2023/01/14 07:25:01;;;;;;;24.60;6.45;;;5.90;99.90;;;;;;5052635;28;20135;-82
2023/01/14 07:27:28;;;;;;;32.10;5.28;;;5.50;99.90;;;;;;5034987;28;20043;-82
2023/01/14 07:29:53;;;;;;;25.63;6.68;;;5.60;99.90;;;;;;5069930;28;20044;-83
2023/01/14 07:32:19;;;;;;;34.75;5.72;;;7.30;99.90;;;;;;5051749;28;20046;-82
2023/01/14 07:34:45;;;;;;;25.25;5.85;;;7.10;99.90;;;;;;5070924;28;20043;-84
2023/01/14 07:37:10;;;;;;;38.53;5.80;;;7.60;99.90;;;;;;5051964;28;20547;-82
2023/01/14 07:39:38;;;;;;;37.55;5.70;;;5.60;99.90;;;;;;5070863;28;20040;-82
2023/01/14 07:42:04;;;;;;;33.05;5.45;;;5.60;99.90;;;;;;5052140;28;20451;-84
2023/01/14 07:44:31;;;;;;;27.30;4.80;;;5.70;99.90;;;;;;5034480;28;20054;-82
2023/01/14 07:46:57;;;;;;;22.80;5.55;;;7.50;99.90;;;;;;5052826;28;20116;-83
2023/01/14 07:49:22;;;;;;;37.08;6.40;;;5.70;99.90;;;;;;5069434;28;20127;-82
2023/01/14 07:51:49;;;;;;;35.00;6.28;;;6.30;99.90;;;;;;5069082;28;20078;-84
2023/01/14 07:54:15;;;;;;;30.20;5.35;;;5.60;99.90;;;;;;5069687;28;20036;-82
2023/01/14 07:56:41;;;;;;;33.53;7.22;;;5.70;99.90;;;;;;5064595;28;20384;-84
2023/01/14 07:59:08;;;;;;;31.52;6.78;;;7.30;99.90;;;;;;5061367;28;20043;-84
2023/01/14 08:01:33;;;;;;;24.40;5.60;;;5.70;99.90;;;;;;5060855;28;20037;-82
2023/01/14 08:03:59;;;;;;;34.35;5.55;;;6.90;99.90;;;;;;5071039;28;20086;-81
2023/01/14 08:06:25;;;;;;;28.55;4.53;;;5.70;99.90;;;;;;5038490;28;20652;-82
2023/01/14 08:08:51;;;;;;;28.02;5.18;;;6.60;99.90;;;;;;5053285;28;20115;-82
2023/01/14 08:11:17;;;;;;;24.95;5.75;;;5.70;99.90;;;;;;5051113;28;20048;-81
2023/01/14 08:13:43;;;;;;;34.42;5.85;;;5.70;99.90;;;;;;5070501;28;20040;-83
2023/01/14 08:16:09;;;;;;;26.55;4.75;;;5.00;99.90;;;;;;5051709;28;20056;-83
2023/01/14 08:18:38;;;;;;;24.00;4.32;;;5.90;99.90;;;;;;5050832;28;20041;-82
2023/01/14 08:21:06;;;;;;;29.63;5.22;;;5.90;99.90;;;;;;5035261;28;20396;-83
2023/01/14 08:23:36;;;;;;;32.45;6.45;;;5.80;99.90;;;;;;5051538;28;20103;-83
2023/01/14 08:26:03;;;;;;;33.75;5.90;;;5.90;99.90;;;;;;5051084;28;20201;-83
2023/01/14 08:28:29;;;;;;;25.50;4.30;;;5.90;99.90;;;;;;5051073;28;20118;-83
2023/01/14 08:31:05;;;;;;;31.25;5.75;;;5.90;99.90;;;;;;5040524;28;20114;-83
2023/01/14 08:33:32;;;;;;;27.50;5.43;;;6.80;99.90;;;;;;5068938;28;20416;-83
2023/01/14 08:36:05;;;;;;;31.10;4.55;;;5.90;99.90;;;;;;5052200;28;20076;-83
2023/01/14 08:38:32;;;;;;;29.65;5.30;;;5.80;99.90;;;;;;5034635;28;20136;-82
2023/01/14 08:40:58;;;;;;;55.20;23.38;;;5.80;99.90;;;;;;5050757;28;20048;-82
2023/01/14 08:43:24;;;;;;;27.88;4.97;;;5.90;99.90;;;;;;5051228;28;20040;-80
2023/01/14 08:45:50;;;;;;;33.75;5.20;;;5.80;99.90;;;;;;5069564;28;20047;-81
2023/01/14 08:48:16;;;;;;;20.83;4.10;;;5.90;99.90;;;;;;5030458;28;21052;-81
2023/01/14 08:50:42;;;;;;;26.38;5.43;;;5.80;99.90;;;;;;5061503;28;20033;-79
2023/01/14 08:53:07;;;;;;;21.83;3.72;;;5.70;99.90;;;;;;5058530;28;20467;-81
2023/01/14 08:55:33;;;;;;;26.63;4.78;;;5.80;99.90;;;;;;5058887;28;20166;-82
2023/01/14 08:57:58;;;;;;;22.00;4.45;;;5.90;99.90;;;;;;5041958;28;20033;-81
2023/01/14 09:00:24;;;;;;;25.55;4.05;;;5.90;99.90;;;;;;5043416;28;20032;-83
2023/01/14 09:02:50;;;;;;;24.70;5.18;;;6.80;99.90;;;;;;5043481;28;20052;-83
2023/01/14 09:05:15;;;;;;;27.33;4.40;;;6.60;99.90;;;;;;5043141;28;20045;-84
2023/01/14 09:18:56;;;;;;;19.67;4.07;;;7.90;99.90;;;;;;4996728;28;20049;-84
2023/01/14 09:21:23;;;;;;;21.77;3.42;;;5.70;99.90;;;;;;5014408;28;20060;-81
2023/01/14 09:23:48;;;;;;;19.65;3.83;;;5.90;99.90;;;;;;5052216;28;20040;-85
2023/01/14 09:26:14;;;;;;;20.20;3.50;;;5.80;99.90;;;;;;5022191;28;20369;-82
2023/01/14 09:28:39;;;;;;;13.23;3.08;;;5.80;99.90;;;;;;5040392;28;20037;-83
2023/01/14 09:31:05;;;;;;;22.73;3.83;;;5.80;99.90;;;;;;5027594;28;20060;-82
2023/01/14 09:33:31;;;;;;;26.13;3.95;;;5.80;99.90;;;;;;5055487;28;20048;-81
2023/01/14 09:36:00;;;;;;;17.50;3.72;;;5.70;99.90;;;;;;5060443;28;20393;-81
2023/01/14 09:38:25;;;;;;;19.27;3.40;;;6.20;99.90;;;;;;5043694;28;20037;-82
2023/01/14 09:40:51;;;;;;;19.17;3.58;;;5.70;99.90;;;;;;5059340;28;20820;-82
2023/01/14 09:43:19;;;;;;;19.60;3.50;;;5.80;99.90;;;;;;5021699;28;20124;-82
2023/01/14 09:45:48;;;;;;;12.68;2.60;;;5.50;99.90;;;;;;5055234;28;20374;-82
2023/01/14 09:48:19;;;;;;;12.23;2.53;;;7.60;99.90;;;;;;5056854;28;20041;-83
2023/01/14 09:51:10;;;;;;;16.92;2.75;;;5.80;99.90;;;;;;5056964;28;20721;-81
2023/01/14 09:53:42;;;;;;;16.63;2.88;;;5.90;99.90;;;;;;5054874;28;20094;-81
2023/01/14 09:56:15;;;;;;;11.32;2.35;;;5.90;99.90;;;;;;5024225;28;20117;-82
2023/01/14 09:58:52;;;;;;;17.23;2.55;;;5.90;99.90;;;;;;5040776;28;20047;-84
2023/01/14 10:01:40;;;;;;;16.17;4.95;;;5.90;99.90;;;;;;5041294;28;20056;-84
2023/01/14 10:04:24;;;;;;;10.02;2.28;;;6.00;99.90;;;;;;5043773;28;20051;-82
2023/01/14 10:06:54;;;;;;;12.77;2.83;;;6.00;99.90;;;;;;5020928;28;20041;-81
2023/01/14 10:09:35;;;;;;;8.38;2.08;;;5.90;99.90;;;;;;5055560;28;20094;-82
2023/01/14 10:12:03;;;;;;;10.30;2.17;;;6.00;99.90;;;;;;5054506;28;20893;-81
2023/01/14 10:14:43;;;;;;;18.00;2.13;;;6.00;99.90;;;;;;5050966;28;20045;-83
2023/01/14 10:17:14;;;;;;;13.02;2.40;;;5.90;99.90;;;;;;5044032;28;20579;-82
2023/01/14 10:19:46;;;;;;;9.90;2.53;;;5.90;99.90;;;;;;5038631;28;20040;-82
2023/01/14 10:22:32;;;;;;;9.93;2.45;;;6.00;99.90;;;;;;5040744;28;20052;-83
2023/01/14 10:24:58;;;;;;;7.20;1.33;;;6.00;99.90;;;;;;5046188;28;20392;-82
2023/01/14 10:27:26;;;;;;;10.45;1.80;;;6.10;99.90;;;;;;5033847;28;20045;-83
2023/01/14 10:29:55;;;;;;;5.32;1.05;;;6.10;99.90;;;;;;5024991;28;20045;-81
2023/01/14 10:32:22;;;;;;;5.13;0.90;;;6.10;99.90;;;;;;5022329;28;20040;-81
2023/01/14 10:34:52;;;;;;;9.80;3.03;;;6.20;99.90;;;;;;5041949;28;20064;-82
2023/01/14 10:37:18;;;;;;;4.85;1.00;;;6.30;99.90;;;;;;5044319;28;20648;-81
2023/01/14 10:39:50;;;;;;;9.55;1.38;;;6.30;99.90;;;;;;5031284;28;20535;-81
2023/01/14 10:42:23;;;;;;;7.10;1.02;;;6.30;99.90;;;;;;5041555;28;20131;-82
2023/01/14 10:44:49;;;;;;;3.53;1.10;;;6.30;99.90;;;;;;5062340;28;20078;-83
2023/01/14 10:47:34;;;;;;;5.75;1.13;;;6.30;99.90;;;;;;5039984;28;20071;-81
2023/01/14 10:50:23;;;;;;;5.55;1.08;;;7.70;99.90;;;;;;5025964;28;20105;-84
2023/01/14 10:52:50;;;;;;;4.07;0.95;;;8.00;99.90;;;;;;5052468;28;20041;-83
2023/01/14 10:55:30;;;;;;;3.65;1.13;;;8.30;99.90;;;;;;5030254;28;20128;-82
2023/01/14 10:58:06;;;;;;;5.35;1.13;;;6.50;99.90;;;;;;5034815;28;20476;-83
2023/01/14 11:00:39;;;;;;;3.80;0.90;;;7.70;99.90;;;;;;5049953;28;20205;-82
2023/01/14 11:03:18;;;;;;;8.43;1.25;;;6.50;99.90;;;;;;5048571;28;20051;-85
2023/01/14 11:05:52;;;;;;;2.58;0.50;;;6.50;99.90;;;;;;5037756;28;20170;-84
2023/01/14 11:08:22;;;;;;;4.50;0.87;;;8.10;99.90;;;;;;5050691;28;20056;-83
2023/01/14 11:11:12;;;;;;;2.95;0.75;;;6.60;99.90;;;;;;5066260;28;20036;-84
2023/01/14 11:13:48;;;;;;;2.65;0.90;;;6.60;99.90;;;;;;5032622;28;20048;-84
2023/01/14 11:16:25;;;;;;;4.60;0.65;;;6.60;99.90;;;;;;5024571;28;20044;-84
2023/01/14 11:19:02;;;;;;;5.40;0.65;;;6.60;99.90;;;;;;5041972;28;20040;-84
2023/01/14 11:21:49;;;;;;;2.38;0.52;;;6.60;99.90;;;;;;5050120;28;20120;-85
2023/01/14 11:24:22;;;;;;;4.45;0.80;;;6.60;99.90;;;;;;5020406;28;20167;-84
2023/01/14 11:26:49;;;;;;;7.50;1.10;;;7.40;99.90;;;;;;5046065;28;20041;-85
2023/01/14 11:29:23;;;;;;;4.95;0.88;;;8.10;99.90;;;;;;5061535;28;20119;-84
2023/01/14 11:31:52;;;;;;;3.20;0.80;;;8.20;99.90;;;;;;5019368;28;20128;-82
2023/01/14 11:34:28;;;;;;;4.35;0.73;;;8.40;99.90;;;;;;5049547;28;20048;-84
2023/01/14 11:37:05;;;;;;;4.50;0.80;;;7.90;99.90;;;;;;5045281;28;20052;-84
2023/01/14 11:39:32;;;;;;;3.90;0.68;;;6.30;99.90;;;;;;5051384;28;20119;-85
2023/01/14 11:41:58;;;;;;;4.82;1.05;;;6.70;99.90;;;;;;5067624;28;20446;-84
2023/01/14 11:44:25;;;;;;;3.22;0.85;;;8.10;99.90;;;;;;5062468;28;20040;-83
2023/01/14 11:47:12;;;;;;;3.22;0.68;;;7.10;99.90;;;;;;5068290;28;20102;-85
2023/01/14 11:49:38;;;;;;;4.93;0.80;;;6.70;99.90;;;;;;5033111;28;20052;-84
2023/01/14 11:52:15;;;;;;;2.75;0.73;;;8.40;99.90;;;;;;5015994;28;20045;-84
2023/01/14 11:54:44;;;;;;;3.63;1.05;;;6.80;99.90;;;;;;5052573;28;20040;-84
2023/01/14 11:57:19;;;;;;;3.25;0.77;;;6.80;99.90;;;;;;5050469;28;20049;-85
2023/01/14 11:59:46;;;;;;;4.57;0.88;;;6.70;99.90;;;;;;5063369;28;20041;-84
2023/01/14 12:02:37;;;;;;;2.22;0.55;;;8.50;99.90;;;;;;5066688;28;20029;-84
2023/01/14 12:05:13;;;;;;;4.85;0.82;;;6.80;99.90;;;;;;5038485;28;20057;-90
2023/01/14 12:07:47;;;;;;;2.80;0.43;;;6.90;99.90;;;;;;5037747;28;20048;-83
2023/01/14 12:10:20;;;;;;;4.80;0.90;;;5.60;99.90;;;;;;5040269;28;20040;-84
2023/01/14 12:18:59;;;;;;;3.95;0.77;;;6.90;99.90;;;;;;5475524;22;20923;-87
2023/01/14 12:21:31;;;;;;;3.72;1.05;;;8.10;99.90;;;;;;5031224;28;20052;-86
2023/01/14 12:24:06;;;;;;;6.45;3.22;;;7.60;99.90;;;;;;5005044;28;20033;-84
2023/01/14 12:26:38;;;;;;;2.92;1.25;;;8.00;99.90;;;;;;5028121;28;20669;-88
2023/01/14 12:29:09;;;;;;;1.67;0.70;;;7.80;99.90;;;;;;5020543;28;20128;-85
2023/01/14 12:31:44;;;;;;;2.13;0.65;;;8.50;99.90;;;;;;5006265;28;20057;-90
2023/01/14 12:34:18;;;;;;;3.85;0.70;;;7.00;99.90;;;;;;5027101;28;20044;-88
2023/01/14 12:37:02;;;;;;;3.17;0.77;;;7.90;99.90;;;;;;5012666;28;20055;-85
2023/01/14 12:47:59;;;;;;;1.83;0.57;;;8.70;99.90;;;;;;5049642;28;20044;-88
2023/01/14 12:50:26;;;;;;;2.38;0.52;;;7.30;99.90;;;;;;5012358;28;20083;-86
2023/01/14 12:52:53;;;;;;;3.35;0.50;;;8.60;99.90;;;;;;5024375;28;20572;-87
2023/01/14 12:55:33;;;;;;;1.00;0.20;;;7.30;99.90;;;;;;5032387;28;20202;-86
2023/01/14 12:58:03;;;;;;;1.45;0.40;;;7.40;99.90;;;;;;5045331;28;20053;-86
2023/01/14 13:00:32;;;;;;;2.70;0.40;;;7.40;99.90;;;;;;5023113;28;20084;-87
2023/01/14 13:03:04;;;;;;;4.82;0.47;;;8.60;99.90;;;;;;5009393;28;20049;-88
2023/01/14 13:05:37;;;;;;;1.40;0.50;;;7.10;99.90;;;;;;5027607;28;20630;-86
2023/01/14 13:08:08;;;;;;;4.72;0.82;;;7.50;99.90;;;;;;5013893;28;20102;-84
2023/01/14 13:10:39;;;;;;;3.67;1.00;;;8.50;99.90;;;;;;5025855;28;20045;-86
2023/01/14 13:13:19;;;;;;;3.22;0.60;;;8.90;99.90;;;;;;5025432;28;20091;-85
2023/01/14 13:15:45;;;;;;;2.05;0.75;;;7.60;99.90;;;;;;5051684;28;20478;-87
2023/01/14 13:18:45;;;;;;;1.25;0.45;;;8.40;99.90;;;;;;5040327;28;20056;-85
2023/01/14 13:21:11;;;;;;;3.00;0.63;;;7.70;99.90;;;;;;4976268;28;20501;-83
2023/01/14 13:23:37;;;;;;;4.15;1.05;;;8.90;99.90;;;;;;5036906;28;20047;-87
2023/01/14 13:26:41;;;;;;;2.17;0.30;;;9.30;99.90;;;;;;5020189;28;20041;-86
2023/01/14 13:29:15;;;;;;;0.55;0.55;;;7.80;99.90;;;;;;5023628;28;20543;-86
2023/01/14 13:31:41;;;;;;;;;;;7.80;99.90;;;;;;5052374;28;20104;-86
2023/01/14 13:34:23;;;;;;;1.20;0.40;;;8.00;99.90;;;;;;5019115;28;19935;-86
2023/01/14 13:37:16;;;;;;;2.05;0.40;;;7.40;99.90;;;;;;5028977;28;20067;-86
2023/01/14 13:39:49;;;;;;;2.17;0.80;;;8.00;99.90;;;;;;5027707;28;20131;-86
2023/01/14 13:42:26;;;;;;;1.95;0.38;;;8.80;99.90;;;;;;5014958;28;20049;-86
2023/01/14 13:44:54;;;;;;;1.55;0.30;;;9.10;99.90;;;;;;5049387;28;20140;-86
2023/01/14 13:47:30;;;;;;;0.80;0.40;;;9.50;99.90;;;;;;5032722;28;20114;-92
2023/01/14 13:50:20;;;;;;;0.30;0.22;;;8.20;99.90;;;;;;5049027;28;20211;-87
2023/01/14 13:52:50;;;;;;;0.25;0.25;;;8.20;99.90;;;;;;5030359;28;20045;-85